Time;durP1;ratioP1;P1;durP2;ratioP2;P2;SDS_P1;SDS_P2;PMS_P1;PMS_P2;Temp;Humidity;BMP_temperature;BMP_pressure;BME280_temperature;BME280_humidity;BME280_pressure;Samples;Min_cycle;Max_cycle;Signal;HPM_P1;HPM_P2
2022/05/07 00:01:28;;;;;;;44.83;31.27;;;;;;;12.97;91.31;99612.48;4053736;85;21074;-80
2022/05/07 00:07:30;;;;;;;53.52;32.70;;;;;;;13.06;91.26;99611.66;4077889;85;21110;-80
2022/05/07 00:13:32;;;;;;;57.67;39.18;;;;;;;13.12;91.23;99612.91;4078673;85;21058;-81
2022/05/07 00:19:34;;;;;;;54.10;35.75;;;;;;;13.02;91.00;99606.69;4060470;85;21068;-80
2022/05/07 00:25:36;;;;;;;48.98;32.48;;;;;;;12.92;91.34;99595.76;4077032;85;21058;-80
2022/05/07 00:31:38;;;;;;;45.70;30.80;;;;;;;12.84;91.75;99596.07;4072527;85;21689;-80
2022/05/07 00:37:39;;;;;;;51.88;34.38;;;;;;;12.91;91.92;99607.92;4062837;85;22299;-80
2022/05/07 00:43:41;;;;;;;49.08;32.45;;;;;;;12.94;92.02;99602.25;4075455;85;21088;-80
2022/05/07 00:49:46;;;;;;;43.20;29.30;;;;;;;12.85;92.10;99602.56;4065256;85;20997;-80
2022/05/07 00:55:48;;;;;;;45.78;32.17;;;;;;;12.86;92.09;99604.73;4058054;85;21630;-80
2022/05/07 01:01:49;;;;;;;51.90;34.10;;;;;;;12.70;92.52;99600.80;4062359;85;21850;-80
2022/05/07 01:07:51;;;;;;;47.50;32.85;;;;;;;12.72;93.00;99590.23;4075183;85;21012;-79
2022/05/07 01:13:54;;;;;;;53.02;35.58;;;;;;;12.64;92.89;99598.17;4054085;85;21026;-80
2022/05/07 01:19:56;;;;;;;52.83;33.83;;;;;;;12.60;93.19;99590.48;4066245;85;21025;-80
2022/05/07 01:26:00;;;;;;;49.67;33.98;;;;;;;12.55;93.11;99590.23;4153591;79;21133;-79
2022/05/07 01:32:04;;;;;;;44.77;30.72;;;;;;;12.55;93.79;99592.19;4208943;83;22097;-81
2022/05/07 01:38:05;;;;;;;55.15;36.38;;;;;;;12.58;94.15;99588.11;4211789;83;21051;-80
2022/05/07 01:44:08;;;;;;;51.40;34.55;;;;;;;12.64;94.27;99587.98;4243783;83;21557;-80
2022/05/07 01:50:10;;;;;;;57.13;38.30;;;;;;;12.62;94.50;99586.19;4243655;83;21057;-80
2022/05/07 01:56:12;;;;;;;57.98;39.20;;;;;;;12.61;94.27;99583.81;4236798;83;21010;-80
2022/05/07 02:02:16;;;;;;;44.77;31.50;;;;;;;12.54;94.76;99583.14;4125240;84;21447;-79
2022/05/07 02:08:18;;;;;;;45.78;32.33;;;;;;;12.53;94.99;99578.83;4124172;84;22106;-83
2022/05/07 02:14:19;;;;;;;52.67;35.13;;;;;;;12.61;95.11;99576.95;4132234;84;21027;-82
2022/05/07 02:20:21;;;;;;;54.00;34.30;;;;;;;12.59;94.35;99583.42;4131602;84;21031;-80
2022/05/07 02:26:24;;;;;;;46.15;32.73;;;;;;;12.48;94.94;99587.39;4204114;83;21007;-80
2022/05/07 02:32:27;;;;;;;54.98;34.75;;;;;;;12.56;95.41;99584.14;4210687;83;20971;-80
2022/05/07 02:38:28;;;;;;;43.40;30.88;;;;;;;12.67;95.32;99591.93;4240746;83;21027;-80
2022/05/07 02:44:30;;;;;;;43.35;30.12;;;;;;;12.72;95.34;99586.72;4121706;84;20999;-80
2022/05/07 02:50:32;;;;;;;53.33;35.35;;;;;;;12.69;95.20;99590.98;4131619;84;21558;-80
2022/05/07 02:56:35;;;;;;;43.30;29.90;;;;;;;12.63;95.16;99589.16;4121749;84;21043;-80
2022/05/07 03:02:36;;;;;;;54.75;35.85;;;;;;;12.60;95.35;99595.98;4126001;84;21476;-79
2022/05/07 03:08:39;;;;;;;55.80;35.13;;;;;;;12.53;95.12;99600.80;4208452;83;20999;-80
2022/05/07 03:14:41;;;;;;;58.48;36.90;;;;;;;12.38;95.60;99607.84;4204218;83;21528;-80
2022/05/07 03:20:43;;;;;;;57.08;37.28;;;;;;;12.37;96.00;99602.16;4204942;83;21380;-80
2022/05/07 03:26:46;;;;;;;48.92;34.53;;;;;;;12.40;96.33;99602.19;4206772;83;21040;-80
2022/05/07 03:32:50;;;;;;;43.73;30.35;;;;;;;12.45;96.33;99607.36;4196168;83;21969;-80
2022/05/07 03:38:51;;;;;;;52.98;34.15;;;;;;;12.44;96.48;99611.84;4201525;83;21824;-79
2022/05/07 03:44:55;;;;;;;41.02;27.42;;;;;;;12.50;96.62;99613.91;4196655;83;21054;-80
2022/05/07 03:50:57;;;;;;;52.17;36.73;;;;;;;12.56;96.54;99614.35;4205192;83;21054;-80
2022/05/07 03:56:59;;;;;;;48.92;34.25;;;;;;;12.54;96.41;99617.47;4201378;83;21015;-79
2022/05/07 04:03:02;;;;;;;51.50;35.85;;;;;;;12.53;96.81;99618.64;4201041;83;21023;-79
2022/05/07 04:09:06;;;;;;;57.48;37.90;;;;;;;12.57;96.97;99612.60;4198014;83;21077;-83
2022/05/07 04:15:09;;;;;;;55.20;37.28;;;;;;;12.58;97.24;99612.83;4190337;83;21034;-81
2022/05/07 04:21:11;;;;;;;54.83;36.77;;;;;;;12.59;97.11;99617.15;4205782;83;21534;-80
2022/05/07 04:27:15;;;;;;;54.88;36.25;;;;;;;12.60;97.64;99615.20;4200509;83;21066;-80
2022/05/07 04:33:16;;;;;;;55.55;37.50;;;;;;;12.72;97.69;99617.70;4205946;83;21078;-80
2022/05/07 04:39:19;;;;;;;56.48;39.10;;;;;;;12.83;97.50;99619.20;4161306;84;21062;-79
2022/05/07 04:45:28;;;;;;;56.18;38.65;;;;;;;12.86;97.60;99615.73;4151458;84;21496;-80
2022/05/07 04:51:34;;;;;;;61.00;37.67;;;;;;;12.93;97.93;99613.05;4145199;84;21142;-79
2022/05/07 04:57:41;;;;;;;54.17;37.27;;;;;;;13.00;98.13;99612.56;4207461;83;22032;-80
2022/05/07 05:03:43;;;;;;;55.78;37.90;;;;;;;13.07;98.23;99611.28;4246535;82;28517;-80
2022/05/07 05:09:46;;;;;;;54.40;39.15;;;;;;;13.14;98.30;99623.72;4310387;81;56915;-83
2022/05/07 05:15:50;;;;;;;56.00;38.30;;;;;;;13.24;98.43;99620.30;4300701;80;20965;-80
2022/05/07 05:22:01;;;;;;;54.95;38.15;;;;;;;13.33;98.25;99625.48;4150463;83;21697;-80
2022/05/07 05:28:04;;;;;;;54.75;38.05;;;;;;;13.45;98.47;99636.99;4177218;83;21053;-81
2022/05/07 05:34:06;;;;;;;60.85;39.88;;;;;;;13.53;97.92;99631.77;4178532;83;21008;-80
2022/05/07 05:40:10;;;;;;;60.48;38.23;;;;;;;13.63;98.04;99637.97;4163266;83;21019;-80
2022/05/07 05:46:16;;;;;;;53.98;34.83;;;;;;;13.78;97.73;99645.16;4162419;84;21067;-79
2022/05/07 05:52:19;;;;;;;51.58;35.75;;;;;;;13.81;97.20;99651.88;4188402;84;21541;-80
2022/05/07 05:58:24;;;;;;;46.75;32.20;;;;;;;13.89;96.72;99647.42;4176598;84;21425;-81
2022/05/07 06:04:25;;;;;;;47.05;33.20;;;;;;;14.06;96.43;99656.40;4193188;83;21031;-80
2022/05/07 06:10:28;;;;;;;47.35;31.62;;;;;;;14.14;95.79;99660.78;4175265;83;21131;-79
2022/05/07 06:16:31;;;;;;;48.63;33.18;;;;;;;14.42;95.70;99662.99;4154668;84;21071;-80
2022/05/07 06:22:35;;;;;;;45.60;31.20;;;;;;;14.60;95.22;99656.19;4177627;84;21535;-80
2022/05/07 06:28:39;;;;;;;45.63;31.33;;;;;;;14.85;94.84;99666.74;4048573;85;21075;-81
2022/05/07 06:34:41;;;;;;;38.70;26.20;;;;;;;15.13;94.46;99675.92;4058756;86;21037;-81
2022/05/07 06:40:43;;;;;;;33.53;23.70;;;;;;;15.26;93.53;99671.64;4074036;86;21036;-81
2022/05/07 06:46:44;;;;;;;35.43;24.47;;;;;;;15.32;92.46;99679.73;4198577;82;21482;-81
2022/05/07 06:52:47;;;;;;;34.63;23.60;;;;;;;15.40;91.93;99678.61;4204261;83;21055;-83
2022/05/07 06:58:49;;;;;;;33.70;22.77;;;;;;;15.40;91.67;99674.48;4192469;82;21641;-82
2022/05/07 07:04:53;;;;;;;31.62;21.35;;;;;;;15.46;91.12;99679.01;4199973;82;21115;-80
2022/05/07 07:10:55;;;;;;;39.58;21.42;;;;;;;15.51;90.13;99673.91;4190145;83;21016;-78
2022/05/07 07:16:56;;;;;;;32.67;21.60;;;;;;;15.51;89.87;99680.81;4189747;84;21119;-81
2022/05/07 07:22:57;;;;;;;31.87;20.90;;;;;;;15.44;89.48;99683.53;4188363;82;21405;-80
2022/05/07 07:29:00;;;;;;;29.67;19.87;;;;;;;15.49;88.95;99684.54;4187428;82;21019;-81
2022/05/07 07:35:06;;;;;;;28.42;20.43;;;;;;;15.63;88.48;99690.66;4184317;82;21022;-81
2022/05/07 07:41:07;;;;;;;30.37;20.17;;;;;;;15.72;87.93;99691.68;4189766;83;21015;-80
2022/05/07 07:53:31;;;;;;;30.90;19.95;;;;;;;15.89;86.38;99687.56;4199114;82;21007;-79
2022/05/07 07:59:32;;;;;;;28.60;18.75;;;;;;;16.00;86.45;99693.09;4190621;83;21494;-78
2022/05/07 08:05:36;;;;;;;22.07;16.42;;;;;;;16.06;85.70;99688.74;4192807;82;21712;-79
2022/05/07 08:11:40;;;;;;;27.58;15.95;;;;;;;16.15;84.97;99694.66;4197719;83;21019;-82
2022/05/07 08:17:42;;;;;;;23.30;16.23;;;;;;;16.18;83.42;99698.00;4191269;83;21235;-79
2022/05/07 08:23:43;;;;;;;21.17;14.85;;;;;;;16.24;83.51;99697.83;4188993;83;21066;-78
2022/05/07 08:29:45;;;;;;;20.68;12.65;;;;;;;16.53;82.37;99693.87;4172938;83;21056;-78
2022/05/07 08:35:47;;;;;;;22.58;13.48;;;;;;;16.65;81.52;99695.63;4111183;84;21066;-79
2022/05/07 08:41:49;;;;;;;19.17;9.15;;;;;;;16.82;80.76;99700.90;4298887;81;21056;-80
2022/05/07 08:47:53;;;;;;;18.30;10.08;;;;;;;16.92;79.31;99702.85;4280952;82;21839;-80
2022/05/07 08:53:55;;;;;;;17.12;9.20;;;;;;;17.00;78.71;99701.06;4300290;82;21026;-80
2022/05/07 08:59:57;;;;;;;10.80;7.60;;;;;;;17.19;77.94;99706.72;4172137;83;21003;-80
2022/05/07 09:05:58;;;;;;;13.30;7.80;;;;;;;17.34;76.52;99710.98;4165576;84;21048;-80
2022/05/07 09:12:00;;;;;;;15.65;8.35;;;;;;;17.58;75.32;99720.38;4175081;83;21013;-80
2022/05/07 09:18:14;;;;;;;14.07;7.75;;;;;;;17.91;73.70;99712.27;4164194;83;21526;-81
2022/05/07 09:24:18;;;;;;;13.08;6.85;;;;;;;18.11;73.17;99706.96;4167646;83;21027;-81
2022/05/07 09:30:25;;;;;;;10.98;5.97;;;;;;;18.53;72.63;99713.55;4163048;82;21012;-80
2022/05/07 09:36:30;;;;;;;12.35;5.30;;;;;;;18.94;71.51;99714.91;4204521;82;21059;-80
2022/05/07 09:42:38;;;;;;;8.70;5.08;;;;;;;19.64;70.04;99709.88;4197696;83;21082;-81
2022/05/07 09:48:39;;;;;;;8.28;4.92;;;;;;;20.20;67.18;99697.33;4190915;83;21063;-81
2022/05/07 10:01:48;;;;;;;12.18;5.72;;;;;;;20.87;65.17;99698.92;4190921;83;21063;-81
2022/05/07 10:08:15;;;;;;;7.55;5.22;;;;;;;21.18;62.22;99695.34;4204173;83;21031;-82
2022/05/07 10:14:27;;;;;;;9.33;4.75;;;;;;;21.37;62.28;99686.19;4204442;83;20994;-81
2022/05/07 10:20:41;;;;;;;7.55;4.35;;;;;;;21.53;60.67;99685.61;4208865;83;21054;-80
2022/05/07 10:26:47;;;;;;;8.13;4.90;;;;;;;21.31;59.41;99685.12;4201886;84;21002;-81
2022/05/07 10:33:04;;;;;;;9.05;4.12;;;;;;;21.01;57.66;99681.17;4234199;84;21014;-81
2022/05/07 10:39:09;;;;;;;7.65;4.58;;;;;;;20.59;57.01;99683.36;4219543;83;21063;-80
2022/05/07 10:45:22;;;;;;;8.73;5.07;;;;;;;20.31;53.62;99679.09;4158946;84;21066;-80
2022/05/07 10:51:32;;;;;;;11.22;5.50;;;;;;;20.13;55.10;99673.01;4219285;82;21045;-81
2022/05/07 10:57:43;;;;;;;8.78;5.60;;;;;;;19.94;53.94;99678.67;4176095;84;21075;-82
2022/05/07 11:03:46;;;;;;;8.68;4.80;;;;;;;20.54;53.59;99667.16;4202442;83;21093;-80
2022/05/07 11:09:52;;;;;;;8.60;4.92;;;;;;;21.11;51.38;99656.53;4209513;83;21001;-80
2022/05/07 11:16:06;;;;;;;6.80;5.00;;;;;;;;;;4219042;82;21126;-80
2022/05/07 11:22:10;;;;;;;7.28;5.53;;;;;;;22.72;51.13;99650.45;4223363;83;21553;-81
2022/05/07 11:28:11;;;;;;;11.60;4.58;;;;;;;21.57;47.04;99637.58;4197202;82;21602;-81
2022/05/07 11:34:13;;;;;;;10.45;5.00;;;;;;;21.57;47.04;99637.58;4166174;83;21067;-81
2022/05/07 11:40:27;;;;;;;10.80;4.33;;;;;;;21.88;46.37;99640.84;4164025;83;21103;-80
2022/05/07 11:46:29;;;;;;;5.17;3.62;;;;;;;21.89;47.05;99628.50;4174487;83;20999;-81
2022/05/07 11:52:31;;;;;;;8.10;4.12;;;;;;;21.61;47.36;99629.91;4171366;84;20983;-81
2022/05/07 11:58:47;;;;;;;9.08;4.87;;;;;;;21.42;47.56;99634.92;4160303;84;22041;-81
2022/05/07 12:04:58;;;;;;;7.15;4.65;;;;;;;21.30;47.57;99638.39;4170894;83;22029;-80
2022/05/07 12:11:02;;;;;;;12.30;5.58;;;;;;;21.15;47.43;99634.35;4174674;83;20987;-80
2022/05/07 12:29:52;;;;;;;6.75;4.33;;;;;;;20.53;47.88;99628.81;4198929;83;21525;-82
2022/05/07 12:35:54;;;;;;;7.58;3.90;;;;;;;20.29;47.29;99630.67;4198793;83;21486;-81
2022/05/07 12:41:55;;;;;;;9.33;4.45;;;;;;;20.13;47.43;99621.59;4146029;84;21007;-81
2022/05/07 12:47:57;;;;;;;7.95;3.95;;;;;;;20.34;47.24;99620.45;4139287;84;21383;-80
2022/05/07 12:53:59;;;;;;;9.20;5.53;;;;;;;20.59;47.81;99606.87;4234548;82;21061;-80
2022/05/07 13:00:01;;;;;;;6.90;4.50;;;;;;;20.69;47.06;99608.04;4231055;82;21026;-80
2022/05/07 13:06:03;;;;;;;5.58;4.05;;;;;;;20.55;47.58;99602.76;4222427;82;20994;-81
2022/05/07 13:12:13;;;;;;;7.58;5.22;;;;;;;20.47;47.56;99601.31;4222684;83;22077;-81
2022/05/07 13:18:13;;;;;;;9.75;5.33;;;;;;;20.52;47.58;99602.22;4230523;82;21011;-81
2022/05/07 13:24:16;;;;;;;9.65;6.33;;;;;;;20.62;47.46;99597.07;4231806;83;21073;-81
2022/05/07 13:30:18;;;;;;;10.40;5.12;;;;;;;20.46;47.21;99596.98;4194209;83;21054;-81
2022/05/07 13:36:21;;;;;;;6.50;5.53;;;;;;;20.17;47.76;99593.94;4191980;82;21028;-80
2022/05/07 13:42:23;;;;;;;14.03;5.92;;;;;;;19.97;47.61;99593.67;4191683;83;20995;-81
2022/05/07 13:48:25;;;;;;;7.87;4.92;;;;;;;19.80;48.33;99584.44;4194945;83;21053;-82
2022/05/07 13:54:26;;;;;;;8.25;4.75;;;;;;;19.83;48.45;99584.98;4199565;83;20979;-81
2022/05/07 14:00:28;;;;;;;8.98;5.50;;;;;;;19.81;48.70;99573.50;4204895;83;20999;-81
2022/05/07 14:06:30;;;;;;;7.30;4.87;;;;;;;19.69;48.72;99575.50;4152987;83;21003;-82
2022/05/07 14:12:32;;;;;;;8.13;5.33;;;;;;;19.43;49.54;99571.36;4188493;83;21368;-82
2022/05/07 14:18:33;;;;;;;9.98;5.35;;;;;;;19.28;50.82;99571.41;4199414;82;21011;-82
2022/05/07 14:24:35;;;;;;;8.78;5.75;;;;;;;19.17;52.19;99567.34;4195032;83;21914;-82
2022/05/07 14:30:37;;;;;;;10.80;5.87;;;;;;;19.17;53.64;99564.57;4224422;82;21003;-82
2022/05/07 14:36:38;;;;;;;7.90;5.75;;;;;;;19.10;53.55;99560.52;4157380;84;21059;-82
2022/05/07 14:42:40;;;;;;;11.20;6.03;;;;;;;19.04;53.71;99549.72;4197671;82;21015;-82
2022/05/07 14:48:43;;;;;;;9.85;5.53;;;;;;;18.86;53.48;99542.81;4155679;85;21094;-82
2022/05/07 14:54:45;;;;;;;8.03;5.95;;;;;;;18.79;54.31;99544.31;4196059;82;21022;-82
2022/05/07 15:00:46;;;;;;;8.75;5.78;;;;;;;18.74;54.06;99539.39;4164179;84;21884;-82
2022/05/07 15:06:47;;;;;;;8.53;6.00;;;;;;;18.75;53.96;99538.80;4206784;83;21059;-81
2022/05/07 15:12:50;;;;;;;8.98;6.12;;;;;;;18.76;54.73;99536.83;4087997;85;21019;-81
2022/05/07 15:18:52;;;;;;;11.53;7.95;;;;;;;18.63;54.99;99533.23;4183499;83;21073;-81
2022/05/07 15:24:55;;;;;;;11.28;7.80;;;;;;;18.36;54.77;99517.68;4186702;83;21011;-80
2022/05/07 15:30:56;;;;;;;11.55;7.80;;;;;;;18.36;54.40;99518.48;4205460;82;21071;-82
2022/05/07 15:37:03;;;;;;;12.10;7.33;;;;;;;18.38;54.24;99517.50;4228894;83;21422;-81
2022/05/07 15:43:03;;;;;;;12.40;6.97;;;;;;;18.15;53.53;99510.39;4197657;82;21011;-80
2022/05/07 15:49:06;;;;;;;10.63;7.17;;;;;;;18.20;53.61;99509.95;4197880;82;21673;-81
2022/05/07 15:55:08;;;;;;;11.15;6.90;;;;;;;18.26;53.62;99504.75;4195403;83;21054;-81
2022/05/07 16:01:09;;;;;;;12.28;6.60;;;;;;;18.26;53.54;99504.13;4083373;86;21031;-82
2022/05/07 16:07:12;;;;;;;10.60;7.17;;;;;;;18.27;53.68;99503.55;4224958;83;21007;-81
2022/05/07 16:13:18;;;;;;;8.00;5.92;;;;;;;18.24;53.27;99501.02;4191277;83;22003;-81
2022/05/07 16:19:22;;;;;;;8.53;4.97;;;;;;;18.24;53.66;99509.91;4195814;83;21070;-81
2022/05/07 16:25:25;;;;;;;11.15;6.30;;;;;;;18.31;54.33;99507.84;4200793;82;21047;-82
2022/05/07 16:31:26;;;;;;;10.03;6.15;;;;;;;18.30;54.64;99504.89;4182062;83;21040;-83
2022/05/07 16:37:31;;;;;;;10.72;6.35;;;;;;;18.32;55.50;99508.64;4133362;85;21056;-81
2022/05/07 16:43:33;;;;;;;12.18;6.45;;;;;;;18.24;55.58;99505.76;4132878;84;21139;-80
2022/05/07 16:49:38;;;;;;;12.80;7.08;;;;;;;18.19;56.39;99504.23;4119016;85;21059;-81
2022/05/07 16:55:41;;;;;;;8.75;5.72;;;;;;;18.12;56.22;99506.30;4185165;84;21534;-81
2022/05/07 17:01:42;;;;;;;9.28;7.33;;;;;;;18.03;56.75;99514.30;4147239;84;21042;-81
2022/05/07 17:07:46;;;;;;;10.88;6.65;;;;;;;17.95;56.48;99504.48;4170917;83;21083;-81
2022/05/07 17:13:47;;;;;;;10.85;6.50;;;;;;;17.81;56.75;99512.94;4145163;85;21023;-81
2022/05/07 17:19:51;;;;;;;8.98;6.30;;;;;;;17.62;56.90;99518.45;4174267;84;21092;-80
2022/05/07 17:25:52;;;;;;;9.25;6.60;;;;;;;17.46;57.14;99513.27;4179144;83;21031;-80
2022/05/07 17:31:54;;;;;;;11.83;6.85;;;;;;;17.43;57.79;99509.29;4143618;85;21139;-80
2022/05/07 17:38:02;;;;;;;12.33;7.83;;;;;;;17.23;57.75;99507.50;4167858;84;21000;-81
2022/05/07 17:44:03;;;;;;;8.68;6.85;;;;;;;17.03;57.90;99502.50;4145720;84;21051;-80
2022/05/07 17:50:08;;;;;;;16.37;11.20;;;;;;;16.89;58.57;99510.89;4179836;84;21048;-81
2022/05/07 17:56:10;;;;;;;15.03;10.65;;;;;;;16.70;58.92;99523.02;4174418;83;20992;-80
2022/05/07 18:02:12;;;;;;;24.27;15.18;;;;;;;16.60;59.55;99524.65;4180293;84;21007;-82
2022/05/07 18:08:14;;;;;;;27.85;17.45;;;;;;;16.48;60.03;99520.97;4177473;84;21087;-82
2022/05/07 18:14:16;;;;;;;26.73;17.77;;;;;;;16.30;60.32;99521.58;4170519;84;21066;-82
2022/05/07 18:20:19;;;;;;;30.72;18.02;;;;;;;16.10;60.85;99522.46;4169968;84;21555;-81
2022/05/07 18:26:21;;;;;;;33.28;21.40;;;;;;;15.83;61.48;99519.36;4164877;84;21063;-82
2022/05/07 18:32:26;;;;;;;41.73;24.65;;;;;;;15.57;62.17;99521.15;4190739;82;21067;-82
2022/05/07 18:44:46;;;;;;;41.37;24.75;;;;;;;15.02;63.95;99544.72;4196388;83;21027;-81
2022/05/07 18:50:48;;;;;;;31.10;19.45;;;;;;;14.93;64.97;99544.31;4191502;83;20999;-81
2022/05/07 19:03:12;;;;;;;50.10;29.85;;;;;;;14.77;66.26;99543.89;4158449;83;21915;-82
2022/05/07 19:09:14;;;;;;;56.90;36.10;;;;;;;14.55;66.49;99539.48;4158887;83;21543;-81
2022/05/07 19:15:15;;;;;;;42.75;27.22;;;;;;;14.39;67.22;99546.70;4161172;84;21381;-81
2022/05/07 19:21:18;;;;;;;37.60;24.18;;;;;;;14.31;67.54;99553.92;4188246;82;21031;-81
2022/05/07 19:27:19;;;;;;;49.25;25.92;;;;;;;14.24;68.37;99560.19;4073966;82;9999910;-81
2022/05/07 19:33:21;;;;;;;37.63;26.07;;;;;;;14.23;68.97;99548.14;4181303;82;20967;-81
2022/05/07 19:39:23;;;;;;;38.60;25.00;;;;;;;14.11;69.52;99543.17;4177387;83;21006;-81
2022/05/07 19:45:26;;;;;;;34.18;22.85;;;;;;;13.87;69.52;99547.95;4173960;84;20972;-82
2022/05/07 19:51:28;;;;;;;39.35;24.32;;;;;;;13.70;70.02;99558.83;4280239;82;21026;-82
2022/05/07 19:57:29;;;;;;;35.63;22.07;;;;;;;13.58;70.41;99554.98;4277401;82;21041;-81
2022/05/07 20:03:31;;;;;;;31.27;21.15;;;;;;;13.54;71.10;99556.36;4296373;80;21045;-81
2022/05/07 20:09:33;;;;;;;35.70;23.77;;;;;;;13.52;71.49;99556.52;4303632;80;21131;-81
2022/05/07 20:15:36;;;;;;;34.70;24.87;;;;;;;13.40;71.95;99556.23;4324788;82;21852;-80
2022/05/07 20:21:56;;;;;;;36.42;24.00;;;;;;;13.32;72.48;99559.29;4291475;82;20977;-81
2022/05/07 20:27:55;;;;;;;38.10;26.55;;;;;;;13.39;73.14;99556.02;4290883;81;20954;-81
2022/05/07 20:33:58;;;;;;;38.28;25.15;;;;;;;13.41;73.21;99559.18;4297282;81;20987;-81
2022/05/07 20:39:59;;;;;;;37.88;27.15;;;;;;;13.29;73.47;99564.17;4302378;82;20963;-81
2022/05/07 20:52:21;;;;;;;39.42;24.60;;;;;;;13.30;74.60;99567.12;4211229;82;20978;-81
2022/05/07 20:58:22;;;;;;;35.85;25.02;;;;;;;13.34;74.86;99561.08;4267159;82;21031;-81
2022/05/07 21:04:25;;;;;;;40.05;25.72;;;;;;;13.39;74.97;99562.12;4294594;82;21744;-81
2022/05/07 21:10:27;;;;;;;35.00;22.42;;;;;;;13.39;75.18;99562.89;4298200;81;20991;-81
2022/05/07 21:16:30;;;;;;;30.65;20.15;;;;;;;13.40;75.42;99565.86;4295984;82;21040;-81
2022/05/07 21:22:31;;;;;;;33.88;21.65;;;;;;;13.41;75.57;99570.18;4293591;82;21070;-80
2022/05/07 21:28:33;;;;;;;36.40;24.02;;;;;;;13.37;75.28;99582.32;4290791;82;21050;-82
2022/05/07 21:34:35;;;;;;;34.75;24.43;;;;;;;13.08;75.49;99583.20;4269733;82;21039;-81
2022/05/07 21:40:37;;;;;;;34.13;23.20;;;;;;;12.98;76.16;99588.78;4270653;82;21035;-81
2022/05/07 21:46:39;;;;;;;37.05;25.43;;;;;;;12.79;76.41;99586.78;4284536;82;21038;-82
2022/05/07 21:52:40;;;;;;;35.35;23.05;;;;;;;12.77;77.09;99586.36;4283357;82;21030;-81
2022/05/07 21:58:43;;;;;;;31.75;21.82;;;;;;;12.72;77.82;99581.99;4277989;82;21130;-81
2022/05/07 22:04:44;;;;;;;34.75;22.87;;;;;;;12.89;78.29;99588.87;4283828;82;21099;-80
2022/05/07 22:10:47;;;;;;;44.15;27.62;;;;;;;12.89;78.02;99590.25;4282681;81;21031;-81
2022/05/07 22:16:48;;;;;;;40.83;25.45;;;;;;;12.70;78.67;99590.41;4275434;82;21119;-81
2022/05/07 22:22:50;;;;;;;40.48;23.95;;;;;;;12.63;79.22;99591.91;4274769;82;21000;-81
2022/05/07 22:28:51;;;;;;;44.95;28.20;;;;;;;12.75;79.58;99591.45;4281014;82;20967;-82
2022/05/07 22:34:52;;;;;;;37.20;24.27;;;;;;;12.68;79.65;99594.91;4310081;82;21035;-81
2022/05/07 22:40:54;;;;;;;29.60;21.48;;;;;;;12.68;80.28;99597.66;4300411;82;21537;-81
2022/05/07 22:46:57;;;;;;;29.75;21.00;;;;;;;12.75;80.54;99601.84;4307977;81;21090;-81
2022/05/07 22:52:58;;;;;;;35.30;21.55;;;;;;;12.74;80.81;99601.64;4301914;81;21005;-81
2022/05/07 22:59:01;;;;;;;30.25;21.15;;;;;;;12.79;81.01;99597.20;4305740;81;21877;-80
2022/05/07 23:05:03;;;;;;;31.20;20.50;;;;;;;12.81;81.08;99600.94;4312937;81;20986;-81
2022/05/07 23:11:05;;;;;;;30.43;20.80;;;;;;;12.87;81.20;99593.95;4299895;81;21010;-81
2022/05/07 23:17:06;;;;;;;29.60;19.85;;;;;;;12.95;81.20;99597.75;4307620;82;20986;-81
2022/05/07 23:23:08;;;;;;;28.98;19.57;;;;;;;12.99;81.21;99592.30;4308144;81;21082;-81
2022/05/07 23:29:09;;;;;;;35.95;22.98;;;;;;;12.92;81.52;99597.13;4303788;81;21031;-83
2022/05/07 23:35:11;;;;;;;35.78;22.73;;;;;;;12.68;81.34;99595.48;4308631;81;21454;-80
2022/05/07 23:41:12;;;;;;;41.05;25.48;;;;;;;12.61;82.13;99593.43;4305206;82;21027;-81
2022/05/07 23:47:14;;;;;;;30.20;21.80;;;;;;;12.55;82.62;99599.85;4295335;81;21506;-81
2022/05/07 23:53:15;;;;;;;30.30;20.43;;;;;;;12.65;82.93;99602.52;4301480;82;21998;-82
2022/05/07 23:59:16;;;;;;;31.95;21.85;;;;;;;12.75;83.07;99603.81;4297488;81;20988;-81
